sensor_id;sensor_type;location;lat;lon;timestamp;temperature;humidity
3069;DHT22;1545;51.728;8.796;2022-07-05T00:01:22;14.90;86.20
3069;DHT22;1545;51.728;8.796;2022-07-05T00:03:50;14.90;86.10
3069;DHT22;1545;51.728;8.796;2022-07-05T00:06:18;14.90;86.30
3069;DHT22;1545;51.728;8.796;2022-07-05T00:08:44;14.80;86.30
3069;DHT22;1545;51.728;8.796;2022-07-05T00:11:12;14.60;86.50
3069;DHT22;1545;51.728;8.796;2022-07-05T00:13:48;14.40;87.30
3069;DHT22;1545;51.728;8.796;2022-07-05T00:16:16;14.20;88.60
3069;DHT22;1545;51.728;8.796;2022-07-05T00:18:42;14.10;89.30
3069;DHT22;1545;51.728;8.796;2022-07-05T00:21:10;13.90;89.60
3069;DHT22;1545;51.728;8.796;2022-07-05T00:23:56;13.90;90.20
3069;DHT22;1545;51.728;8.796;2022-07-05T00:26:22;13.60;90.80
3069;DHT22;1545;51.728;8.796;2022-07-05T00:28:50;13.60;91.10
3069;DHT22;1545;51.728;8.796;2022-07-05T00:31:19;13.50;91.80
3069;DHT22;1545;51.728;8.796;2022-07-05T00:34:12;13.50;92.00
3069;DHT22;1545;51.728;8.796;2022-07-05T00:36:40;13.50;92.50
3069;DHT22;1545;51.728;8.796;2022-07-05T00:39:09;13.40;92.90
3069;DHT22;1545;51.728;8.796;2022-07-05T00:41:53;13.40;93.00
3069;DHT22;1545;51.728;8.796;2022-07-05T00:44:32;13.40;92.90
3069;DHT22;1545;51.728;8.796;2022-07-05T00:47:05;13.50;92.40
3069;DHT22;1545;51.728;8.796;2022-07-05T00:49:36;13.50;92.40
3069;DHT22;1545;51.728;8.796;2022-07-05T00:52:06;13.50;92.20
3069;DHT22;1545;51.728;8.796;2022-07-05T00:55:04;13.50;91.90
3069;DHT22;1545;51.728;8.796;2022-07-05T00:57:38;13.50;91.40
3069;DHT22;1545;51.728;8.796;2022-07-05T01:00:05;13.50;92.00
3069;DHT22;1545;51.728;8.796;2022-07-05T01:02:42;13.40;92.10
3069;DHT22;1545;51.728;8.796;2022-07-05T01:05:39;13.40;92.20
3069;DHT22;1545;51.728;8.796;2022-07-05T01:08:10;13.40;92.50
3069;DHT22;1545;51.728;8.796;2022-07-05T01:10:37;13.40;92.40
3069;DHT22;1545;51.728;8.796;2022-07-05T01:13:06;13.60;91.60
3069;DHT22;1545;51.728;8.796;2022-07-05T01:15:32;13.60;91.30
3069;DHT22;1545;51.728;8.796;2022-07-05T01:17:58;13.60;91.20
3069;DHT22;1545;51.728;8.796;2022-07-05T01:20:25;13.50;91.30
3069;DHT22;1545;51.728;8.796;2022-07-05T01:22:56;13.60;91.10
3069;DHT22;1545;51.728;8.796;2022-07-05T01:28:21;13.80;89.90
3069;DHT22;1545;51.728;8.796;2022-07-05T01:30:48;13.80;89.80
3069;DHT22;1545;51.728;8.796;2022-07-05T01:33:20;13.80;89.60
3069;DHT22;1545;51.728;8.796;2022-07-05T01:35:59;13.90;89.50
3069;DHT22;1545;51.728;8.796;2022-07-05T01:38:37;14.00;88.90
3069;DHT22;1545;51.728;8.796;2022-07-05T01:41:12;14.00;88.70
3069;DHT22;1545;51.728;8.796;2022-07-05T01:43:38;14.00;88.40
3069;DHT22;1545;51.728;8.796;2022-07-05T01:46:08;13.90;88.60
3069;DHT22;1545;51.728;8.796;2022-07-05T01:48:39;14.00;88.30
3069;DHT22;1545;51.728;8.796;2022-07-05T01:51:18;14.00;88.20
3069;DHT22;1545;51.728;8.796;2022-07-05T01:53:47;14.00;88.10
3069;DHT22;1545;51.728;8.796;2022-07-05T01:56:34;14.00;88.10
3069;DHT22;1545;51.728;8.796;2022-07-05T01:59:12;13.90;88.20
3069;DHT22;1545;51.728;8.796;2022-07-05T02:01:39;13.90;88.40
3069;DHT22;1545;51.728;8.796;2022-07-05T02:04:08;13.80;88.40
3069;DHT22;1545;51.728;8.796;2022-07-05T02:06:56;13.80;88.60
3069;DHT22;1545;51.728;8.796;2022-07-05T02:09:33;13.80;88.70
3069;DHT22;1545;51.728;8.796;2022-07-05T02:12:15;13.80;88.70
3069;DHT22;1545;51.728;8.796;2022-07-05T02:14:41;13.60;88.80
3069;DHT22;1545;51.728;8.796;2022-07-05T02:17:08;13.50;89.10
3069;DHT22;1545;51.728;8.796;2022-07-05T02:19:38;13.40;89.60
3069;DHT22;1545;51.728;8.796;2022-07-05T02:22:04;13.30;89.70
3069;DHT22;1545;51.728;8.796;2022-07-05T02:24:39;13.30;90.30
3069;DHT22;1545;51.728;8.796;2022-07-05T02:27:13;13.20;90.60
3069;DHT22;1545;51.728;8.796;2022-07-05T02:29:43;13.10;91.20
3069;DHT22;1545;51.728;8.796;2022-07-05T02:32:20;12.90;91.50
3069;DHT22;1545;51.728;8.796;2022-07-05T02:34:51;12.80;92.10
3069;DHT22;1545;51.728;8.796;2022-07-05T02:37:17;12.60;93.40
3069;DHT22;1545;51.728;8.796;2022-07-05T02:39:43;12.50;94.10
3069;DHT22;1545;51.728;8.796;2022-07-05T02:42:16;12.50;94.40
3069;DHT22;1545;51.728;8.796;2022-07-05T02:44:42;12.50;94.50
3069;DHT22;1545;51.728;8.796;2022-07-05T02:47:12;12.50;94.50
3069;DHT22;1545;51.728;8.796;2022-07-05T02:49:45;12.60;94.50
3069;DHT22;1545;51.728;8.796;2022-07-05T02:52:42;12.60;94.50
3069;DHT22;1545;51.728;8.796;2022-07-05T02:55:21;12.60;94.50
3069;DHT22;1545;51.728;8.796;2022-07-05T02:57:59;12.60;94.20
3069;DHT22;1545;51.728;8.796;2022-07-05T03:00:50;12.50;93.90
3069;DHT22;1545;51.728;8.796;2022-07-05T03:03:24;12.50;94.20
3069;DHT22;1545;51.728;8.796;2022-07-05T03:08:46;12.40;93.80
3069;DHT22;1545;51.728;8.796;2022-07-05T03:11:13;12.40;94.40
3069;DHT22;1545;51.728;8.796;2022-07-05T03:13:48;12.40;94.70
3069;DHT22;1545;51.728;8.796;2022-07-05T03:16:15;12.40;94.50
3069;DHT22;1545;51.728;8.796;2022-07-05T03:18:42;12.40;94.30
3069;DHT22;1545;51.728;8.796;2022-07-05T03:23:48;12.40;94.20
3069;DHT22;1545;51.728;8.796;2022-07-05T03:26:14;12.40;94.00
3069;DHT22;1545;51.728;8.796;2022-07-05T03:28:40;12.40;93.90
3069;DHT22;1545;51.728;8.796;2022-07-05T03:31:09;12.40;93.80
3069;DHT22;1545;51.728;8.796;2022-07-05T03:33:57;12.40;93.90
3069;DHT22;1545;51.728;8.796;2022-07-05T03:36:24;12.40;94.00
3069;DHT22;1545;51.728;8.796;2022-07-05T03:38:50;12.40;94.30
3069;DHT22;1545;51.728;8.796;2022-07-05T03:41:24;12.40;94.30
3069;DHT22;1545;51.728;8.796;2022-07-05T03:43:51;12.40;94.40
3069;DHT22;1545;51.728;8.796;2022-07-05T03:46:28;12.30;94.40
3069;DHT22;1545;51.728;8.796;2022-07-05T03:49:05;12.30;94.50
3069;DHT22;1545;51.728;8.796;2022-07-05T03:51:38;12.20;95.60
3069;DHT22;1545;51.728;8.796;2022-07-05T03:54:04;12.40;95.80
3069;DHT22;1545;51.728;8.796;2022-07-05T03:56:40;12.50;95.60
3069;DHT22;1545;51.728;8.796;2022-07-05T03:59:05;12.60;95.50
3069;DHT22;1545;51.728;8.796;2022-07-05T04:01:34;12.70;94.80
3069;DHT22;1545;51.728;8.796;2022-07-05T04:04:23;12.80;93.60
3069;DHT22;1545;51.728;8.796;2022-07-05T04:07:19;13.00;93.40
3069;DHT22;1545;51.728;8.796;2022-07-05T04:09:49;13.20;92.70
3069;DHT22;1545;51.728;8.796;2022-07-05T04:12:14;13.40;92.50
3069;DHT22;1545;51.728;8.796;2022-07-05T04:14:52;13.60;92.50
3069;DHT22;1545;51.728;8.796;2022-07-05T04:20:05;13.80;92.00
3069;DHT22;1545;51.728;8.796;2022-07-05T04:22:31;13.80;91.70
3069;DHT22;1545;51.728;8.796;2022-07-05T04:24:57;13.90;90.60
3069;DHT22;1545;51.728;8.796;2022-07-05T04:28:02;14.00;90.10
3069;DHT22;1545;51.728;8.796;2022-07-05T04:30:38;14.30;88.50
3069;DHT22;1545;51.728;8.796;2022-07-05T04:33:06;15.50;85.50
3069;DHT22;1545;51.728;8.796;2022-07-05T04:35:50;16.40;82.70
3069;DHT22;1545;51.728;8.796;2022-07-05T04:38:29;16.70;81.30
3069;DHT22;1545;51.728;8.796;2022-07-05T04:40:59;16.70;80.20
3069;DHT22;1545;51.728;8.796;2022-07-05T04:43:25;16.70;79.80
3069;DHT22;1545;51.728;8.796;2022-07-05T04:45:50;16.80;80.10
3069;DHT22;1545;51.728;8.796;2022-07-05T04:48:19;16.90;79.40
3069;DHT22;1545;51.728;8.796;2022-07-05T04:50:47;17.10;78.70
3069;DHT22;1545;51.728;8.796;2022-07-05T04:53:13;17.80;77.10
3069;DHT22;1545;51.728;8.796;2022-07-05T04:55:54;17.80;76.30
3069;DHT22;1545;51.728;8.796;2022-07-05T04:58:35;17.90;76.30
3069;DHT22;1545;51.728;8.796;2022-07-05T05:04:12;18.80;73.60
3069;DHT22;1545;51.728;8.796;2022-07-05T05:06:39;18.70;74.40
3069;DHT22;1545;51.728;8.796;2022-07-05T05:09:05;18.70;74.80
3069;DHT22;1545;51.728;8.796;2022-07-05T05:11:47;18.80;74.80
3069;DHT22;1545;51.728;8.796;2022-07-05T05:14:26;19.40;74.30
3069;DHT22;1545;51.728;8.796;2022-07-05T05:16:51;19.70;73.50
3069;DHT22;1545;51.728;8.796;2022-07-05T05:19:20;19.50;73.80
3069;DHT22;1545;51.728;8.796;2022-07-05T05:21:46;19.30;74.40
3069;DHT22;1545;51.728;8.796;2022-07-05T05:24:34;19.80;73.80
3069;DHT22;1545;51.728;8.796;2022-07-05T05:27:04;21.00;71.40
3069;DHT22;1545;51.728;8.796;2022-07-05T05:29:38;21.20;69.70
3069;DHT22;1545;51.728;8.796;2022-07-05T05:32:06;21.50;69.10
3069;DHT22;1545;51.728;8.796;2022-07-05T05:34:34;21.80;69.00
3069;DHT22;1545;51.728;8.796;2022-07-05T05:37:04;22.60;66.80
3069;DHT22;1545;51.728;8.796;2022-07-05T05:39:31;23.30;63.90
3069;DHT22;1545;51.728;8.796;2022-07-05T05:41:57;23.70;62.60
3069;DHT22;1545;51.728;8.796;2022-07-05T05:44:35;23.90;61.50
3069;DHT22;1545;51.728;8.796;2022-07-05T05:47:03;24.50;60.60
3069;DHT22;1545;51.728;8.796;2022-07-05T05:49:40;25.40;57.90
3069;DHT22;1545;51.728;8.796;2022-07-05T05:52:06;26.20;55.90
3069;DHT22;1545;51.728;8.796;2022-07-05T05:54:32;26.30;55.50
3069;DHT22;1545;51.728;8.796;2022-07-05T05:59:50;28.00;52.10
3069;DHT22;1545;51.728;8.796;2022-07-05T06:02:28;28.70;49.90
3069;DHT22;1545;51.728;8.796;2022-07-05T06:14:00;22.80;61.60
3069;DHT22;1545;51.728;8.796;2022-07-05T06:16:41;22.10;64.00
3069;DHT22;1545;51.728;8.796;2022-07-05T06:22:33;23.00;63.30
3069;DHT22;1545;51.728;8.796;2022-07-05T06:38:10;21.70;67.70
3069;DHT22;1545;51.728;8.796;2022-07-05T06:40:39;23.40;63.00
3069;DHT22;1545;51.728;8.796;2022-07-05T06:43:13;24.90;59.30
3069;DHT22;1545;51.728;8.796;2022-07-05T06:45:42;25.40;56.10
3069;DHT22;1545;51.728;8.796;2022-07-05T06:48:14;26.50;54.80
3069;DHT22;1545;51.728;8.796;2022-07-05T06:54:11;26.40;52.50
3069;DHT22;1545;51.728;8.796;2022-07-05T07:00:06;25.00;56.60
3069;DHT22;1545;51.728;8.796;2022-07-05T07:02:37;25.30;56.10
3069;DHT22;1545;51.728;8.796;2022-07-05T07:05:04;24.60;56.20
3069;DHT22;1545;51.728;8.796;2022-07-05T07:07:38;23.90;58.00
3069;DHT22;1545;51.728;8.796;2022-07-05T07:10:36;24.00;59.10
3069;DHT22;1545;51.728;8.796;2022-07-05T07:13:07;23.80;59.70
3069;DHT22;1545;51.728;8.796;2022-07-05T07:19:02;22.10;62.60
3069;DHT22;1545;51.728;8.796;2022-07-05T07:21:28;22.80;63.20
3069;DHT22;1545;51.728;8.796;2022-07-05T07:23:54;24.50;59.00
3069;DHT22;1545;51.728;8.796;2022-07-05T07:26:23;26.30;54.20
3069;DHT22;1545;51.728;8.796;2022-07-05T07:28:51;27.90;50.50
3069;DHT22;1545;51.728;8.796;2022-07-05T07:31:20;28.70;48.70
3069;DHT22;1545;51.728;8.796;2022-07-05T07:33:56;29.10;46.80
3069;DHT22;1545;51.728;8.796;2022-07-05T07:36:36;27.90;47.50
3069;DHT22;1545;51.728;8.796;2022-07-05T07:39:03;26.90;48.50
3069;DHT22;1545;51.728;8.796;2022-07-05T07:41:37;27.60;48.50
3069;DHT22;1545;51.728;8.796;2022-07-05T07:44:05;27.50;47.30
3069;DHT22;1545;51.728;8.796;2022-07-05T07:46:31;26.60;49.40
3069;DHT22;1545;51.728;8.796;2022-07-05T07:48:57;24.90;53.40
3069;DHT22;1545;51.728;8.796;2022-07-05T07:51:50;25.20;52.80
3069;DHT22;1545;51.728;8.796;2022-07-05T07:57:56;23.90;55.80
3069;DHT22;1545;51.728;8.796;2022-07-05T08:00:26;22.80;59.00
3069;DHT22;1545;51.728;8.796;2022-07-05T08:02:55;23.00;58.60
3069;DHT22;1545;51.728;8.796;2022-07-05T08:05:35;23.90;56.10
3069;DHT22;1545;51.728;8.796;2022-07-05T08:08:23;24.30;55.00
3069;DHT22;1545;51.728;8.796;2022-07-05T08:11:10;24.50;53.60
3069;DHT22;1545;51.728;8.796;2022-07-05T08:13:59;24.70;53.20
3069;DHT22;1545;51.728;8.796;2022-07-05T08:16:27;25.20;52.90
3069;DHT22;1545;51.728;8.796;2022-07-05T08:18:52;26.10;50.80
3069;DHT22;1545;51.728;8.796;2022-07-05T08:21:39;26.90;47.30
3069;DHT22;1545;51.728;8.796;2022-07-05T08:24:07;27.30;46.10
3069;DHT22;1545;51.728;8.796;2022-07-05T08:26:55;27.40;46.30
3069;DHT22;1545;51.728;8.796;2022-07-05T08:29:36;27.20;47.40
3069;DHT22;1545;51.728;8.796;2022-07-05T08:32:06;27.40;46.70
3069;DHT22;1545;51.728;8.796;2022-07-05T08:34:37;27.60;46.70
3069;DHT22;1545;51.728;8.796;2022-07-05T08:37:35;28.70;45.30
3069;DHT22;1545;51.728;8.796;2022-07-05T08:40:50;28.60;44.80
3069;DHT22;1545;51.728;8.796;2022-07-05T08:43:17;26.30;47.40
3069;DHT22;1545;51.728;8.796;2022-07-05T08:46:03;24.70;50.80
3069;DHT22;1545;51.728;8.796;2022-07-05T08:48:39;24.60;51.20
3069;DHT22;1545;51.728;8.796;2022-07-05T08:51:26;25.50;49.50
3069;DHT22;1545;51.728;8.796;2022-07-05T08:54:08;25.60;48.40
3069;DHT22;1545;51.728;8.796;2022-07-05T08:56:35;25.10;50.70
3069;DHT22;1545;51.728;8.796;2022-07-05T08:59:04;24.90;50.80
3069;DHT22;1545;51.728;8.796;2022-07-05T09:01:30;24.90;50.40
3069;DHT22;1545;51.728;8.796;2022-07-05T09:04:09;24.10;52.90
3069;DHT22;1545;51.728;8.796;2022-07-05T09:06:38;24.90;52.30
3069;DHT22;1545;51.728;8.796;2022-07-05T09:09:17;25.80;49.50
3069;DHT22;1545;51.728;8.796;2022-07-05T11:46:27;25.10;49.10
3069;DHT22;1545;51.728;8.796;2022-07-05T11:52:42;24.40;49.90
3069;DHT22;1545;51.728;8.796;2022-07-05T12:25:22;25.20;46.90
3069;DHT22;1545;51.728;8.796;2022-07-05T12:27:55;24.70;47.60
3069;DHT22;1545;51.728;8.796;2022-07-05T12:30:22;24.60;47.80
3069;DHT22;1545;51.728;8.796;2022-07-05T12:33:05;24.70;48.20
3069;DHT22;1545;51.728;8.796;2022-07-05T12:35:39;24.80;47.90
3069;DHT22;1545;51.728;8.796;2022-07-05T12:38:20;24.80;47.50
3069;DHT22;1545;51.728;8.796;2022-07-05T12:40:57;24.90;46.60
3069;DHT22;1545;51.728;8.796;2022-07-05T12:43:23;25.10;46.80
3069;DHT22;1545;51.728;8.796;2022-07-05T12:46:05;25.20;47.00
3069;DHT22;1545;51.728;8.796;2022-07-05T12:48:38;24.40;47.60
3069;DHT22;1545;51.728;8.796;2022-07-05T12:51:10;24.10;48.70
3069;DHT22;1545;51.728;8.796;2022-07-05T12:54:00;24.10;48.70
3069;DHT22;1545;51.728;8.796;2022-07-05T12:56:54;23.80;49.10
3069;DHT22;1545;51.728;8.796;2022-07-05T12:59:39;23.90;48.70
3069;DHT22;1545;51.728;8.796;2022-07-05T13:02:08;24.00;48.20
3069;DHT22;1545;51.728;8.796;2022-07-05T13:04:36;24.20;48.00
3069;DHT22;1545;51.728;8.796;2022-07-05T13:07:11;24.50;47.50
3069;DHT22;1545;51.728;8.796;2022-07-05T13:09:52;24.50;47.70
3069;DHT22;1545;51.728;8.796;2022-07-05T13:12:23;24.40;48.00
3069;DHT22;1545;51.728;8.796;2022-07-05T13:14:56;24.40;47.90
3069;DHT22;1545;51.728;8.796;2022-07-05T13:17:26;24.60;47.80
3069;DHT22;1545;51.728;8.796;2022-07-05T13:19:52;24.80;48.40
3069;DHT22;1545;51.728;8.796;2022-07-05T13:22:20;24.90;47.90
3069;DHT22;1545;51.728;8.796;2022-07-05T13:24:48;25.10;47.90
3069;DHT22;1545;51.728;8.796;2022-07-05T13:27:23;25.00;47.60
3069;DHT22;1545;51.728;8.796;2022-07-05T13:29:51;24.70;47.90
3069;DHT22;1545;51.728;8.796;2022-07-05T13:35:00;25.00;47.30
3069;DHT22;1545;51.728;8.796;2022-07-05T13:37:28;24.80;47.30
3069;DHT22;1545;51.728;8.796;2022-07-05T13:39:55;24.60;48.00
3069;DHT22;1545;51.728;8.796;2022-07-05T13:42:24;24.60;47.80
3069;DHT22;1545;51.728;8.796;2022-07-05T13:44:49;24.30;48.00
3069;DHT22;1545;51.728;8.796;2022-07-05T13:47:15;24.50;48.10
3069;DHT22;1545;51.728;8.796;2022-07-05T13:49:43;24.30;46.80
3069;DHT22;1545;51.728;8.796;2022-07-05T13:52:24;24.10;47.70
3069;DHT22;1545;51.728;8.796;2022-07-05T13:54:51;24.40;47.20
3069;DHT22;1545;51.728;8.796;2022-07-05T13:57:19;24.30;47.30
3069;DHT22;1545;51.728;8.796;2022-07-05T13:59:58;24.20;47.40
3069;DHT22;1545;51.728;8.796;2022-07-05T14:02:26;24.50;47.30
3069;DHT22;1545;51.728;8.796;2022-07-05T14:04:54;24.20;48.00
3069;DHT22;1545;51.728;8.796;2022-07-05T14:07:26;24.10;48.00
3069;DHT22;1545;51.728;8.796;2022-07-05T14:09:55;24.20;48.80
3069;DHT22;1545;51.728;8.796;2022-07-05T14:12:20;24.60;47.00
3069;DHT22;1545;51.728;8.796;2022-07-05T14:14:46;24.30;47.40
3069;DHT22;1545;51.728;8.796;2022-07-05T14:17:11;23.90;48.30
3069;DHT22;1545;51.728;8.796;2022-07-05T14:19:40;24.10;48.20
3069;DHT22;1545;51.728;8.796;2022-07-05T14:22:21;23.90;48.00
3069;DHT22;1545;51.728;8.796;2022-07-05T14:24:54;23.60;48.20
3069;DHT22;1545;51.728;8.796;2022-07-05T14:27:27;23.90;48.00
3069;DHT22;1545;51.728;8.796;2022-07-05T14:29:58;24.10;47.50
3069;DHT22;1545;51.728;8.796;2022-07-05T14:32:26;23.80;48.10
3069;DHT22;1545;51.728;8.796;2022-07-05T14:34:52;23.50;48.90
3069;DHT22;1545;51.728;8.796;2022-07-05T14:37:26;23.80;48.70
3069;DHT22;1545;51.728;8.796;2022-07-05T14:39:54;24.30;48.10
3069;DHT22;1545;51.728;8.796;2022-07-05T14:42:30;24.70;48.10
3069;DHT22;1545;51.728;8.796;2022-07-05T14:44:56;24.90;47.30
3069;DHT22;1545;51.728;8.796;2022-07-05T14:47:24;24.80;47.40
3069;DHT22;1545;51.728;8.796;2022-07-05T14:49:57;24.70;47.10
3069;DHT22;1545;51.728;8.796;2022-07-05T14:52:33;24.80;46.80
3069;DHT22;1545;51.728;8.796;2022-07-05T14:55:01;25.10;46.90
3069;DHT22;1545;51.728;8.796;2022-07-05T14:57:27;24.80;46.90
3069;DHT22;1545;51.728;8.796;2022-07-05T14:59:53;24.50;47.30
3069;DHT22;1545;51.728;8.796;2022-07-05T15:02:18;24.70;47.70
3069;DHT22;1545;51.728;8.796;2022-07-05T15:04:47;24.90;47.00
3069;DHT22;1545;51.728;8.796;2022-07-05T15:07:15;25.00;46.40
3069;DHT22;1545;51.728;8.796;2022-07-05T15:09:43;25.00;46.20
3069;DHT22;1545;51.728;8.796;2022-07-05T15:12:11;25.20;46.00
3069;DHT22;1545;51.728;8.796;2022-07-05T15:14:49;25.10;46.10
3069;DHT22;1545;51.728;8.796;2022-07-05T15:17:23;24.60;46.90
3069;DHT22;1545;51.728;8.796;2022-07-05T15:19:49;24.20;47.30
3069;DHT22;1545;51.728;8.796;2022-07-05T15:22:17;24.40;47.00
3069;DHT22;1545;51.728;8.796;2022-07-05T15:24:46;24.60;47.00
3069;DHT22;1545;51.728;8.796;2022-07-05T15:27:14;24.70;46.70
3069;DHT22;1545;51.728;8.796;2022-07-05T15:29:40;24.70;47.30
3069;DHT22;1545;51.728;8.796;2022-07-05T15:32:07;24.90;46.70
3069;DHT22;1545;51.728;8.796;2022-07-05T15:34:35;24.80;46.20
3069;DHT22;1545;51.728;8.796;2022-07-05T15:37:06;24.70;46.50
3069;DHT22;1545;51.728;8.796;2022-07-05T15:39:54;24.50;46.90
3069;DHT22;1545;51.728;8.796;2022-07-05T15:42:23;24.10;47.60
3069;DHT22;1545;51.728;8.796;2022-07-05T15:44:51;24.50;47.50
3069;DHT22;1545;51.728;8.796;2022-07-05T15:47:25;25.00;46.40
3069;DHT22;1545;51.728;8.796;2022-07-05T15:49:53;25.30;45.60
3069;DHT22;1545;51.728;8.796;2022-07-05T15:52:21;25.10;46.20
3069;DHT22;1545;51.728;8.796;2022-07-05T15:54:47;25.10;46.10
3069;DHT22;1545;51.728;8.796;2022-07-05T15:57:15;24.80;46.50
3069;DHT22;1545;51.728;8.796;2022-07-05T15:59:46;24.60;47.20
3069;DHT22;1545;51.728;8.796;2022-07-05T16:02:12;24.70;47.00
3069;DHT22;1545;51.728;8.796;2022-07-05T16:04:42;24.80;46.80
3069;DHT22;1545;51.728;8.796;2022-07-05T16:07:08;25.00;46.90
3069;DHT22;1545;51.728;8.796;2022-07-05T16:09:35;25.00;46.20
3069;DHT22;1545;51.728;8.796;2022-07-05T16:12:06;25.00;46.20
3069;DHT22;1545;51.728;8.796;2022-07-05T16:17:30;25.10;46.00
3069;DHT22;1545;51.728;8.796;2022-07-05T16:20:01;25.00;46.10
3069;DHT22;1545;51.728;8.796;2022-07-05T16:22:39;24.90;46.50
3069;DHT22;1545;51.728;8.796;2022-07-05T16:25:07;24.90;46.90
3069;DHT22;1545;51.728;8.796;2022-07-05T16:27:34;24.80;45.70
3069;DHT22;1545;51.728;8.796;2022-07-05T16:30:06;24.40;45.80
3069;DHT22;1545;51.728;8.796;2022-07-05T16:32:32;24.40;45.40
3069;DHT22;1545;51.728;8.796;2022-07-05T16:34:58;24.50;45.50
3069;DHT22;1545;51.728;8.796;2022-07-05T16:37:26;24.40;46.00
3069;DHT22;1545;51.728;8.796;2022-07-05T16:39:52;24.40;46.20
3069;DHT22;1545;51.728;8.796;2022-07-05T16:42:17;24.10;46.40
3069;DHT22;1545;51.728;8.796;2022-07-05T16:44:43;23.90;47.10
3069;DHT22;1545;51.728;8.796;2022-07-05T16:47:11;23.90;47.40
3069;DHT22;1545;51.728;8.796;2022-07-05T16:49:40;24.20;47.40
3069;DHT22;1545;51.728;8.796;2022-07-05T16:52:21;24.50;47.30
3069;DHT22;1545;51.728;8.796;2022-07-05T16:54:46;24.60;47.10
3069;DHT22;1545;51.728;8.796;2022-07-05T16:57:21;24.40;47.30
3069;DHT22;1545;51.728;8.796;2022-07-05T16:59:52;24.00;48.10
3069;DHT22;1545;51.728;8.796;2022-07-05T17:02:29;23.80;48.70
3069;DHT22;1545;51.728;8.796;2022-07-05T17:04:59;23.60;49.00
3069;DHT22;1545;51.728;8.796;2022-07-05T17:07:29;23.50;49.10
3069;DHT22;1545;51.728;8.796;2022-07-05T17:09:58;23.60;49.10
3069;DHT22;1545;51.728;8.796;2022-07-05T17:12:29;23.60;49.00
3069;DHT22;1545;51.728;8.796;2022-07-05T17:14:57;23.70;49.00
3069;DHT22;1545;51.728;8.796;2022-07-05T17:17:33;23.30;49.70
3069;DHT22;1545;51.728;8.796;2022-07-05T17:20:06;23.40;49.60
3069;DHT22;1545;51.728;8.796;2022-07-05T17:22:51;23.30;49.80
3069;DHT22;1545;51.728;8.796;2022-07-05T17:25:29;23.00;50.40
3069;DHT22;1545;51.728;8.796;2022-07-05T17:28:13;22.70;51.10
3069;DHT22;1545;51.728;8.796;2022-07-05T17:31:01;22.40;51.90
3069;DHT22;1545;51.728;8.796;2022-07-05T17:33:49;22.40;52.40
3069;DHT22;1545;51.728;8.796;2022-07-05T17:36:26;22.40;52.50
3069;DHT22;1545;51.728;8.796;2022-07-05T17:38:59;22.40;52.10
3069;DHT22;1545;51.728;8.796;2022-07-05T17:41:25;22.40;52.20
3069;DHT22;1545;51.728;8.796;2022-07-05T17:47:37;22.30;52.50
3069;DHT22;1545;51.728;8.796;2022-07-05T17:50:29;22.30;52.70
3069;DHT22;1545;51.728;8.796;2022-07-05T17:53:15;22.30;52.70
3069;DHT22;1545;51.728;8.796;2022-07-05T17:56:08;22.40;52.60
3069;DHT22;1545;51.728;8.796;2022-07-05T17:58:54;22.30;52.80
3069;DHT22;1545;51.728;8.796;2022-07-05T18:05:13;22.20;53.20
3069;DHT22;1545;51.728;8.796;2022-07-05T18:08:04;22.20;53.40
3069;DHT22;1545;51.728;8.796;2022-07-05T18:13:23;22.00;54.30
3069;DHT22;1545;51.728;8.796;2022-07-05T18:16:04;21.90;54.80
3069;DHT22;1545;51.728;8.796;2022-07-05T18:18:43;22.00;55.00
3069;DHT22;1545;51.728;8.796;2022-07-05T18:21:11;21.90;55.30
3069;DHT22;1545;51.728;8.796;2022-07-05T18:26:50;21.80;56.40
3069;DHT22;1545;51.728;8.796;2022-07-05T18:32:39;21.90;56.90
3069;DHT22;1545;51.728;8.796;2022-07-05T18:35:16;21.90;56.90
3069;DHT22;1545;51.728;8.796;2022-07-05T18:37:57;21.90;57.20
3069;DHT22;1545;51.728;8.796;2022-07-05T18:40:28;21.90;57.30
3069;DHT22;1545;51.728;8.796;2022-07-05T18:43:01;21.90;57.60
3069;DHT22;1545;51.728;8.796;2022-07-05T18:45:50;21.70;58.40
3069;DHT22;1545;51.728;8.796;2022-07-05T18:48:45;21.50;59.20
3069;DHT22;1545;51.728;8.796;2022-07-05T18:51:17;21.40;60.10
3069;DHT22;1545;51.728;8.796;2022-07-05T18:53:50;21.30;60.60
3069;DHT22;1545;51.728;8.796;2022-07-05T18:56:23;21.10;61.80
3069;DHT22;1545;51.728;8.796;2022-07-05T18:58:53;20.90;62.60
3069;DHT22;1545;51.728;8.796;2022-07-05T19:01:22;20.70;63.40
3069;DHT22;1545;51.728;8.796;2022-07-05T19:04:03;20.70;64.00
3069;DHT22;1545;51.728;8.796;2022-07-05T19:06:35;20.60;64.50
3069;DHT22;1545;51.728;8.796;2022-07-05T19:09:29;20.60;64.90
3069;DHT22;1545;51.728;8.796;2022-07-05T19:12:18;20.50;65.20
3069;DHT22;1545;51.728;8.796;2022-07-05T19:15:06;20.40;65.60
3069;DHT22;1545;51.728;8.796;2022-07-05T19:17:41;20.30;66.00
3069;DHT22;1545;51.728;8.796;2022-07-05T19:20:24;20.20;66.00
3069;DHT22;1545;51.728;8.796;2022-07-05T19:22:55;20.20;66.30
3069;DHT22;1545;51.728;8.796;2022-07-05T19:25:46;20.20;66.70
3069;DHT22;1545;51.728;8.796;2022-07-05T19:28:32;20.10;67.20
3069;DHT22;1545;51.728;8.796;2022-07-05T19:31:03;20.00;67.70
3069;DHT22;1545;51.728;8.796;2022-07-05T19:33:29;20.00;68.10
3069;DHT22;1545;51.728;8.796;2022-07-05T19:36:21;19.90;68.30
3069;DHT22;1545;51.728;8.796;2022-07-05T19:41:54;19.70;69.10
3069;DHT22;1545;51.728;8.796;2022-07-05T19:44:25;19.70;69.10
3069;DHT22;1545;51.728;8.796;2022-07-05T19:47:04;19.60;68.90
3069;DHT22;1545;51.728;8.796;2022-07-05T19:49:38;19.50;69.20
3069;DHT22;1545;51.728;8.796;2022-07-05T19:52:06;19.40;69.30
3069;DHT22;1545;51.728;8.796;2022-07-05T19:54:44;19.40;69.10
3069;DHT22;1545;51.728;8.796;2022-07-05T19:57:13;19.30;69.30
3069;DHT22;1545;51.728;8.796;2022-07-05T19:59:44;19.20;69.70
3069;DHT22;1545;51.728;8.796;2022-07-05T20:02:12;19.20;70.00
3069;DHT22;1545;51.728;8.796;2022-07-05T20:10:18;19.10;69.90
3069;DHT22;1545;51.728;8.796;2022-07-05T20:12:44;19.10;70.20
3069;DHT22;1545;51.728;8.796;2022-07-05T20:15:11;19.10;70.00
3069;DHT22;1545;51.728;8.796;2022-07-05T20:17:40;19.10;70.10
3069;DHT22;1545;51.728;8.796;2022-07-05T20:20:18;18.90;70.00
3069;DHT22;1545;51.728;8.796;2022-07-05T20:22:51;19.00;70.00
3069;DHT22;1545;51.728;8.796;2022-07-05T20:25:22;18.90;69.70
3069;DHT22;1545;51.728;8.796;2022-07-05T20:27:53;18.90;70.00
3069;DHT22;1545;51.728;8.796;2022-07-05T20:30:25;18.90;70.00
3069;DHT22;1545;51.728;8.796;2022-07-05T20:33:14;18.90;69.90
3069;DHT22;1545;51.728;8.796;2022-07-05T20:35:43;18.90;69.80
3069;DHT22;1545;51.728;8.796;2022-07-05T20:38:09;18.80;70.10
3069;DHT22;1545;51.728;8.796;2022-07-05T20:40:39;18.80;70.10
3069;DHT22;1545;51.728;8.796;2022-07-05T20:43:26;18.80;70.00
3069;DHT22;1545;51.728;8.796;2022-07-05T20:46:16;18.80;70.00
3069;DHT22;1545;51.728;8.796;2022-07-05T20:49:00;18.80;69.90
3069;DHT22;1545;51.728;8.796;2022-07-05T20:51:31;18.80;70.10
3069;DHT22;1545;51.728;8.796;2022-07-05T20:56:36;18.80;70.20
3069;DHT22;1545;51.728;8.796;2022-07-05T20:59:19;18.80;70.50
3069;DHT22;1545;51.728;8.796;2022-07-05T21:01:50;18.80;70.30
3069;DHT22;1545;51.728;8.796;2022-07-05T21:04:21;18.80;70.20
3069;DHT22;1545;51.728;8.796;2022-07-05T21:07:02;18.80;69.80
3069;DHT22;1545;51.728;8.796;2022-07-05T21:09:48;18.80;69.60
3069;DHT22;1545;51.728;8.796;2022-07-05T21:12:26;18.80;69.40
3069;DHT22;1545;51.728;8.796;2022-07-05T21:14:59;18.80;69.30
3069;DHT22;1545;51.728;8.796;2022-07-05T21:20:19;18.70;69.30
3069;DHT22;1545;51.728;8.796;2022-07-05T21:22:45;18.70;69.50